sensor_id;sensor_type;location;lat;lon;timestamp;P1;durP1;ratioP1;P2;durP2;ratioP2
10142;SDS011;5112;54.088;13.446;2023-11-19T00:05:35;4.73;;;4.13;;
10142;SDS011;5112;54.088;13.446;2023-11-19T00:15:38;5.57;;;4.83;;
10142;SDS011;5112;54.088;13.446;2023-11-19T00:25:39;5.50;;;4.60;;
10142;SDS011;5112;54.088;13.446;2023-11-19T00:35:42;5.07;;;4.57;;
10142;SDS011;5112;54.088;13.446;2023-11-19T00:45:44;5.53;;;4.50;;
10142;SDS011;5112;54.088;13.446;2023-11-19T00:55:47;6.97;;;5.47;;
10142;SDS011;5112;54.088;13.446;2023-11-19T01:05:48;6.63;;;5.93;;
10142;SDS011;5112;54.088;13.446;2023-11-19T01:15:53;6.93;;;6.10;;
10142;SDS011;5112;54.088;13.446;2023-11-19T01:25:56;6.90;;;6.20;;
10142;SDS011;5112;54.088;13.446;2023-11-19T01:35:59;9.57;;;7.40;;
10142;SDS011;5112;54.088;13.446;2023-11-19T01:46:01;10.50;;;7.53;;
10142;SDS011;5112;54.088;13.446;2023-11-19T01:56:06;8.07;;;7.27;;
10142;SDS011;5112;54.088;13.446;2023-11-19T02:06:10;10.33;;;8.23;;
10142;SDS011;5112;54.088;13.446;2023-11-19T02:16:13;8.00;;;7.20;;
10142;SDS011;5112;54.088;13.446;2023-11-19T02:26:17;9.00;;;7.97;;
10142;SDS011;5112;54.088;13.446;2023-11-19T02:36:24;11.77;;;8.27;;
10142;SDS011;5112;54.088;13.446;2023-11-19T02:46:25;9.17;;;8.00;;
10142;SDS011;5112;54.088;13.446;2023-11-19T02:56:28;9.93;;;8.33;;
10142;SDS011;5112;54.088;13.446;2023-11-19T03:06:34;8.87;;;7.87;;
10142;SDS011;5112;54.088;13.446;2023-11-19T03:16:37;8.87;;;6.80;;
10142;SDS011;5112;54.088;13.446;2023-11-19T03:26:39;9.10;;;7.53;;
10142;SDS011;5112;54.088;13.446;2023-11-19T03:36:42;9.43;;;7.37;;
10142;SDS011;5112;54.088;13.446;2023-11-19T03:46:43;10.67;;;7.70;;
10142;SDS011;5112;54.088;13.446;2023-11-19T03:56:46;9.90;;;8.07;;
10142;SDS011;5112;54.088;13.446;2023-11-19T04:06:49;8.13;;;7.33;;
10142;SDS011;5112;54.088;13.446;2023-11-19T04:16:52;9.50;;;7.53;;
10142;SDS011;5112;54.088;13.446;2023-11-19T04:26:53;8.33;;;7.37;;
10142;SDS011;5112;54.088;13.446;2023-11-19T04:36:57;9.50;;;7.77;;
10142;SDS011;5112;54.088;13.446;2023-11-19T04:47:02;9.13;;;8.10;;
10142;SDS011;5112;54.088;13.446;2023-11-19T04:57:05;9.37;;;7.30;;
10142;SDS011;5112;54.088;13.446;2023-11-19T05:07:06;10.57;;;9.47;;
10142;SDS011;5112;54.088;13.446;2023-11-19T05:17:09;15.20;;;10.27;;
10142;SDS011;5112;54.088;13.446;2023-11-19T05:27:11;11.47;;;10.00;;
10142;SDS011;5112;54.088;13.446;2023-11-19T05:37:15;13.23;;;10.40;;
10142;SDS011;5112;54.088;13.446;2023-11-19T05:47:16;12.53;;;10.53;;
10142;SDS011;5112;54.088;13.446;2023-11-19T05:57:19;12.57;;;10.27;;
10142;SDS011;5112;54.088;13.446;2023-11-19T06:07:24;10.83;;;9.57;;
10142;SDS011;5112;54.088;13.446;2023-11-19T06:17:27;11.43;;;9.23;;
10142;SDS011;5112;54.088;13.446;2023-11-19T06:27:28;10.63;;;9.10;;
10142;SDS011;5112;54.088;13.446;2023-11-19T06:37:31;9.83;;;8.83;;
10142;SDS011;5112;54.088;13.446;2023-11-19T06:47:33;12.93;;;11.63;;
10142;SDS011;5112;54.088;13.446;2023-11-19T06:57:36;10.57;;;9.00;;
10142;SDS011;5112;54.088;13.446;2023-11-19T07:07:38;12.97;;;9.63;;
10142;SDS011;5112;54.088;13.446;2023-11-19T07:17:41;9.77;;;8.50;;
10142;SDS011;5112;54.088;13.446;2023-11-19T07:27:44;11.27;;;8.70;;
10142;SDS011;5112;54.088;13.446;2023-11-19T07:37:48;11.50;;;8.40;;
10142;SDS011;5112;54.088;13.446;2023-11-19T07:47:50;9.67;;;7.93;;
10142;SDS011;5112;54.088;13.446;2023-11-19T07:57:54;9.90;;;8.10;;
10142;SDS011;5112;54.088;13.446;2023-11-19T08:07:56;10.40;;;8.53;;
10142;SDS011;5112;54.088;13.446;2023-11-19T08:17:59;10.57;;;9.20;;
10142;SDS011;5112;54.088;13.446;2023-11-19T08:28:02;12.50;;;10.20;;
10142;SDS011;5112;54.088;13.446;2023-11-19T08:38:05;11.57;;;9.80;;
10142;SDS011;5112;54.088;13.446;2023-11-19T08:48:07;10.97;;;8.27;;
10142;SDS011;5112;54.088;13.446;2023-11-19T08:58:10;9.47;;;7.90;;
10142;SDS011;5112;54.088;13.446;2023-11-19T09:08:11;8.90;;;7.27;;
10142;SDS011;5112;54.088;13.446;2023-11-19T09:18:14;8.60;;;7.00;;
10142;SDS011;5112;54.088;13.446;2023-11-19T09:28:16;9.33;;;8.00;;
10142;SDS011;5112;54.088;13.446;2023-11-19T09:38:19;7.03;;;6.33;;
10142;SDS011;5112;54.088;13.446;2023-11-19T09:48:20;8.17;;;7.10;;
10142;SDS011;5112;54.088;13.446;2023-11-19T09:58:26;7.67;;;6.70;;
10142;SDS011;5112;54.088;13.446;2023-11-19T10:08:28;7.93;;;7.17;;
10142;SDS011;5112;54.088;13.446;2023-11-19T10:18:32;6.47;;;5.77;;
10142;SDS011;5112;54.088;13.446;2023-11-19T10:28:38;6.13;;;4.90;;
10142;SDS011;5112;54.088;13.446;2023-11-19T10:38:42;5.03;;;4.30;;
10142;SDS011;5112;54.088;13.446;2023-11-19T10:48:53;3.67;;;3.37;;
10142;SDS011;5112;54.088;13.446;2023-11-19T10:58:56;3.90;;;3.50;;
10142;SDS011;5112;54.088;13.446;2023-11-19T11:09:00;4.07;;;3.67;;
10142;SDS011;5112;54.088;13.446;2023-11-19T11:19:04;4.17;;;3.33;;
10142;SDS011;5112;54.088;13.446;2023-11-19T11:29:09;3.37;;;3.07;;
10142;SDS011;5112;54.088;13.446;2023-11-19T11:39:17;4.27;;;3.30;;
10142;SDS011;5112;54.088;13.446;2023-11-19T11:49:26;3.13;;;2.93;;
10142;SDS011;5112;54.088;13.446;2023-11-19T11:59:40;3.17;;;2.87;;
10142;SDS011;5112;54.088;13.446;2023-11-19T12:09:46;3.93;;;3.57;;
10142;SDS011;5112;54.088;13.446;2023-11-19T12:19:51;4.80;;;4.40;;
10142;SDS011;5112;54.088;13.446;2023-11-19T12:29:53;5.97;;;4.77;;
10142;SDS011;5112;54.088;13.446;2023-11-19T12:39:58;11.53;;;8.60;;
10142;SDS011;5112;54.088;13.446;2023-11-19T12:50:00;6.90;;;6.20;;
10142;SDS011;5112;54.088;13.446;2023-11-19T13:00:03;9.00;;;5.97;;
10142;SDS011;5112;54.088;13.446;2023-11-19T13:10:09;10.93;;;6.03;;
10142;SDS011;5112;54.088;13.446;2023-11-19T13:20:13;10.53;;;7.07;;
10142;SDS011;5112;54.088;13.446;2023-11-19T13:30:17;13.77;;;8.80;;
10142;SDS011;5112;54.088;13.446;2023-11-19T13:40:21;9.73;;;7.03;;
10142;SDS011;5112;54.088;13.446;2023-11-19T13:50:24;8.53;;;6.43;;
10142;SDS011;5112;54.088;13.446;2023-11-19T14:00:27;12.77;;;7.50;;
10142;SDS011;5112;54.088;13.446;2023-11-19T14:10:29;21.43;;;7.27;;
10142;SDS011;5112;54.088;13.446;2023-11-19T14:20:32;17.50;;;5.87;;
10142;SDS011;5112;54.088;13.446;2023-11-19T14:30:36;17.10;;;6.43;;
10142;SDS011;5112;54.088;13.446;2023-11-19T14:40:39;21.97;;;5.97;;
10142;SDS011;5112;54.088;13.446;2023-11-19T14:50:42;20.33;;;6.17;;
10142;SDS011;5112;54.088;13.446;2023-11-19T15:00:46;24.80;;;6.43;;
10142;SDS011;5112;54.088;13.446;2023-11-19T15:10:47;18.90;;;4.90;;
10142;SDS011;5112;54.088;13.446;2023-11-19T15:20:51;22.07;;;5.90;;
10142;SDS011;5112;54.088;13.446;2023-11-19T15:30:52;17.63;;;5.43;;
10142;SDS011;5112;54.088;13.446;2023-11-19T15:40:56;11.97;;;4.60;;
10142;SDS011;5112;54.088;13.446;2023-11-19T15:50:57;16.63;;;5.20;;
10142;SDS011;5112;54.088;13.446;2023-11-19T16:01:01;15.80;;;5.07;;
10142;SDS011;5112;54.088;13.446;2023-11-19T16:11:03;16.20;;;5.13;;
10142;SDS011;5112;54.088;13.446;2023-11-19T16:21:06;16.77;;;5.10;;
10142;SDS011;5112;54.088;13.446;2023-11-19T16:31:08;11.90;;;4.00;;
10142;SDS011;5112;54.088;13.446;2023-11-19T16:41:11;14.47;;;4.47;;
10142;SDS011;5112;54.088;13.446;2023-11-19T16:51:13;14.03;;;4.77;;
10142;SDS011;5112;54.088;13.446;2023-11-19T17:01:17;23.53;;;5.13;;
10142;SDS011;5112;54.088;13.446;2023-11-19T17:11:19;21.50;;;4.73;;
10142;SDS011;5112;54.088;13.446;2023-11-19T17:21:22;24.63;;;6.63;;
10142;SDS011;5112;54.088;13.446;2023-11-19T17:31:24;23.23;;;6.50;;
10142;SDS011;5112;54.088;13.446;2023-11-19T17:41:27;20.50;;;6.22;;
10142;SDS011;5112;54.088;13.446;2023-11-19T17:51:28;17.30;;;5.53;;
10142;SDS011;5112;54.088;13.446;2023-11-19T18:01:31;21.38;;;6.65;;
10142;SDS011;5112;54.088;13.446;2023-11-19T18:11:35;18.03;;;5.67;;
10142;SDS011;5112;54.088;13.446;2023-11-19T18:21:38;15.37;;;5.07;;
10142;SDS011;5112;54.088;13.446;2023-11-19T18:31:40;16.20;;;5.13;;
10142;SDS011;5112;54.088;13.446;2023-11-19T18:41:43;18.90;;;5.67;;
10142;SDS011;5112;54.088;13.446;2023-11-19T18:51:45;20.80;;;6.47;;
10142;SDS011;5112;54.088;13.446;2023-11-19T19:01:48;19.15;;;7.35;;
10142;SDS011;5112;54.088;13.446;2023-11-19T19:11:49;18.87;;;6.10;;
10142;SDS011;5112;54.088;13.446;2023-11-19T19:21:53;16.83;;;5.90;;
10142;SDS011;5112;54.088;13.446;2023-11-19T19:31:55;18.33;;;6.07;;
10142;SDS011;5112;54.088;13.446;2023-11-19T19:41:59;20.53;;;6.57;;
10142;SDS011;5112;54.088;13.446;2023-11-19T19:52:04;14.87;;;5.70;;
10142;SDS011;5112;54.088;13.446;2023-11-19T20:02:07;20.00;;;6.60;;
10142;SDS011;5112;54.088;13.446;2023-11-19T20:12:10;17.30;;;5.37;;
10142;SDS011;5112;54.088;13.446;2023-11-19T20:22:13;19.70;;;5.50;;
10142;SDS011;5112;54.088;13.446;2023-11-19T20:32:14;19.90;;;5.20;;
10142;SDS011;5112;54.088;13.446;2023-11-19T20:42:17;20.30;;;6.50;;
10142;SDS011;5112;54.088;13.446;2023-11-19T20:52:19;11.73;;;4.80;;
10142;SDS011;5112;54.088;13.446;2023-11-19T21:02:23;13.73;;;4.17;;
10142;SDS011;5112;54.088;13.446;2023-11-19T21:12:24;17.30;;;5.33;;
10142;SDS011;5112;54.088;13.446;2023-11-19T21:22:27;18.02;;;5.13;;
10142;SDS011;5112;54.088;13.446;2023-11-19T21:32:29;10.33;;;3.83;;
10142;SDS011;5112;54.088;13.446;2023-11-19T21:42:33;7.40;;;3.47;;
10142;SDS011;5112;54.088;13.446;2023-11-19T21:52:35;13.53;;;3.60;;
10142;SDS011;5112;54.088;13.446;2023-11-19T22:02:38;15.30;;;4.97;;
10142;SDS011;5112;54.088;13.446;2023-11-19T22:12:39;7.70;;;4.13;;
10142;SDS011;5112;54.088;13.446;2023-11-19T22:22:43;9.53;;;3.80;;
10142;SDS011;5112;54.088;13.446;2023-11-19T22:32:45;8.60;;;3.37;;
10142;SDS011;5112;54.088;13.446;2023-11-19T22:42:48;9.10;;;3.83;;
10142;SDS011;5112;54.088;13.446;2023-11-19T22:52:50;13.27;;;4.17;;
10142;SDS011;5112;54.088;13.446;2023-11-19T23:02:53;16.30;;;4.33;;
10142;SDS011;5112;54.088;13.446;2023-11-19T23:12:56;11.53;;;4.17;;
10142;SDS011;5112;54.088;13.446;2023-11-19T23:22:59;12.97;;;4.43;;
10142;SDS011;5112;54.088;13.446;2023-11-19T23:33:00;15.97;;;4.43;;
10142;SDS011;5112;54.088;13.446;2023-11-19T23:43:03;15.10;;;4.90;;
10142;SDS011;5112;54.088;13.446;2023-11-19T23:53:05;16.00;;;4.47;;
